WST334 MYNN-MYEF
Flight info
| Callsign | WST334 |
|---|---|
| Flight time | 0h 30m |
| Altitude | 13000 |
| Route | BOSAR |
| Aircraft | E145/M-SDFGIRW/S |
Departure
| Time | 2026-05-06 00:34 |
|---|---|
| Airport | Lynden Pindling International Airport (MYNN) |
Arrival
| Time | 2026-05-06 01:04 |
|---|---|
| Airport | Exuma International Airport (MYEF) |
| Time | Latitude | Longitude | Altitude | Speed | Heading |
|---|---|---|---|---|---|
| 2026-05-05 23:47 | 25.04747 | -77.46595 | 25 ft | 0 kts | 179° |
| 2026-05-06 00:28 | 25.04746 | -77.46595 | 25 ft | 0 kts | 179° |
| 2026-05-06 00:28 | 25.04740 | -77.46602 | 25 ft | 3 kts | 251° |
| 2026-05-06 00:29 | 25.04779 | -77.46634 | 25 ft | 10 kts | 302° |
| 2026-05-06 00:29 | 25.04752 | -77.46693 | 25 ft | 8 kts | 222° |
| 2026-05-06 00:29 | 25.04708 | -77.46744 | 25 ft | 9 kts | 243° |
| 2026-05-06 00:29 | 25.04737 | -77.46813 | 25 ft | 11 kts | 315° |
| 2026-05-06 00:30 | 25.04798 | -77.46878 | 25 ft | 11 kts | 315° |
| 2026-05-06 00:30 | 25.04855 | -77.46943 | 25 ft | 12 kts | 314° |
| 2026-05-06 00:30 | 25.04923 | -77.47018 | 25 ft | 14 kts | 311° |
| 2026-05-06 00:30 | 25.04998 | -77.47104 | 25 ft | 13 kts | 315° |
| 2026-05-06 00:31 | 25.05067 | -77.47181 | 25 ft | 15 kts | 314° |
| 2026-05-06 00:31 | 25.05147 | -77.47272 | 25 ft | 17 kts | 315° |
| 2026-05-06 00:31 | 25.05218 | -77.47375 | 25 ft | 16 kts | 279° |
| 2026-05-06 00:31 | 25.05212 | -77.47450 | 24 ft | 8 kts | 254° |
| 2026-05-06 00:32 | 25.05186 | -77.47514 | 24 ft | 10 kts | 238° |
| 2026-05-06 00:32 | 25.05145 | -77.47527 | 24 ft | 7 kts | 137° |
| 2026-05-06 00:32 | 25.05085 | -77.47461 | 25 ft | 13 kts | 135° |
| 2026-05-06 00:32 | 25.05079 | -77.47454 | 25 ft | 0 kts | 135° |
| 2026-05-06 00:33 | 25.05078 | -77.47453 | 25 ft | 0 kts | 135° |
| 2026-05-06 00:33 | 25.04990 | -77.47356 | 25 ft | 52 kts | 135° |
| 2026-05-06 00:33 | 25.04554 | -77.46870 | 25 ft | 121 kts | 134° |
| 2026-05-06 00:33 | 25.03863 | -77.46088 | 211 ft | 149 kts | 134° |
| 2026-05-06 00:34 | 25.03166 | -77.45267 | 767 ft | 154 kts | 134° |
| 2026-05-06 00:34 | 25.02362 | -77.44415 | 1267 ft | 168 kts | 137° |
| 2026-05-06 00:34 | 25.01495 | -77.43468 | 1828 ft | 182 kts | 136° |
| 2026-05-06 00:34 | 25.00578 | -77.42454 | 2384 ft | 196 kts | 136° |
| 2026-05-06 00:35 | 24.99588 | -77.41355 | 2934 ft | 211 kts | 136° |
| 2026-05-06 00:35 | 24.98647 | -77.40042 | 3474 ft | 228 kts | 123° |
| 2026-05-06 00:35 | 24.97704 | -77.38502 | 3955 ft | 254 kts | 126° |
| 2026-05-06 00:35 | 24.96678 | -77.36868 | 4625 ft | 271 kts | 126° |
| 2026-05-06 00:36 | 24.95581 | -77.35131 | 5466 ft | 281 kts | 126° |
| 2026-05-06 00:36 | 24.94461 | -77.33360 | 6417 ft | 285 kts | 127° |
| 2026-05-06 00:36 | 24.93325 | -77.31566 | 7326 ft | 290 kts | 127° |
| 2026-05-06 00:36 | 24.92179 | -77.29756 | 8184 ft | 295 kts | 127° |
| 2026-05-06 00:37 | 24.91003 | -77.27899 | 9069 ft | 299 kts | 127° |
| 2026-05-06 00:37 | 24.89788 | -77.25984 | 9643 ft | 316 kts | 127° |
| 2026-05-06 00:37 | 24.88510 | -77.23967 | 10191 ft | 330 kts | 127° |
| 2026-05-06 00:37 | 24.87160 | -77.21839 | 10797 ft | 343 kts | 127° |
| 2026-05-06 00:38 | 24.85770 | -77.19649 | 11184 ft | 361 kts | 127° |
| 2026-05-06 00:38 | 24.84284 | -77.17309 | 11380 ft | 379 kts | 127° |
| 2026-05-06 00:38 | 24.82795 | -77.14962 | 11335 ft | 369 kts | 127° |
| 2026-05-06 00:38 | 24.81331 | -77.12659 | 11017 ft | 367 kts | 127° |
| 2026-05-06 00:39 | 24.79890 | -77.10391 | 10981 ft | 357 kts | 127° |
| 2026-05-06 00:39 | 24.78487 | -77.08186 | 10977 ft | 347 kts | 127° |
| 2026-05-06 00:39 | 24.77128 | -77.06049 | 10978 ft | 338 kts | 127° |
| 2026-05-06 00:39 | 24.75781 | -77.03934 | 10977 ft | 331 kts | 127° |
| 2026-05-06 00:40 | 24.74486 | -77.01903 | 10978 ft | 324 kts | 127° |
| 2026-05-06 00:40 | 24.73194 | -76.99877 | 10983 ft | 319 kts | 127° |
| 2026-05-06 00:40 | 24.71937 | -76.97906 | 10980 ft | 314 kts | 127° |
| 2026-05-06 00:40 | 24.70692 | -76.95954 | 10981 ft | 310 kts | 127° |
| 2026-05-06 00:41 | 24.69453 | -76.94012 | 10978 ft | 306 kts | 127° |
| 2026-05-06 00:41 | 24.68249 | -76.92126 | 10981 ft | 302 kts | 127° |
| 2026-05-06 00:41 | 24.67048 | -76.90244 | 10983 ft | 299 kts | 127° |
| 2026-05-06 00:41 | 24.65844 | -76.88358 | 10981 ft | 297 kts | 127° |
| 2026-05-06 00:42 | 24.64671 | -76.86523 | 10982 ft | 294 kts | 127° |
| 2026-05-06 00:42 | 24.63391 | -76.84784 | 10977 ft | 288 kts | 142° |
| 2026-05-06 00:42 | 24.61809 | -76.83469 | 10990 ft | 285 kts | 146° |
| 2026-05-06 00:42 | 24.60230 | -76.82180 | 10983 ft | 283 kts | 146° |
| 2026-05-06 00:43 | 24.58641 | -76.80885 | 10985 ft | 282 kts | 147° |
| 2026-05-06 00:43 | 24.57059 | -76.79598 | 10983 ft | 280 kts | 146° |
| 2026-05-06 00:43 | 24.55505 | -76.78334 | 10983 ft | 279 kts | 147° |
| 2026-05-06 00:43 | 24.53933 | -76.77056 | 10982 ft | 278 kts | 147° |
| 2026-05-06 00:44 | 24.52382 | -76.75796 | 10984 ft | 277 kts | 146° |
| 2026-05-06 00:44 | 24.50820 | -76.74527 | 10984 ft | 277 kts | 146° |
| 2026-05-06 00:44 | 24.49290 | -76.73284 | 10984 ft | 277 kts | 146° |
| 2026-05-06 00:44 | 24.47694 | -76.71990 | 10993 ft | 290 kts | 146° |
| 2026-05-06 00:45 | 24.46036 | -76.70645 | 10998 ft | 303 kts | 146° |
| 2026-05-06 00:45 | 24.44298 | -76.69235 | 10990 ft | 314 kts | 146° |
| 2026-05-06 00:45 | 24.42513 | -76.67787 | 10991 ft | 324 kts | 146° |
| 2026-05-06 00:45 | 24.40669 | -76.66292 | 10972 ft | 334 kts | 146° |
| 2026-05-06 00:46 | 24.38790 | -76.64769 | 10406 ft | 337 kts | 146° |
| 2026-05-06 00:46 | 24.36922 | -76.63255 | 9811 ft | 333 kts | 146° |
| 2026-05-06 00:46 | 24.35051 | -76.61740 | 9207 ft | 329 kts | 146° |
| 2026-05-06 00:46 | 24.33243 | -76.60277 | 8618 ft | 326 kts | 146° |
| 2026-05-06 00:47 | 24.31456 | -76.58830 | 7954 ft | 310 kts | 145° |
| 2026-05-06 00:47 | 24.29764 | -76.57460 | 7379 ft | 291 kts | 145° |
| 2026-05-06 00:47 | 24.28209 | -76.56203 | 7014 ft | 271 kts | 145° |
| 2026-05-06 00:47 | 24.26731 | -76.55007 | 6637 ft | 255 kts | 145° |
| 2026-05-06 00:48 | 24.25338 | -76.53883 | 6268 ft | 243 kts | 145° |
| 2026-05-06 00:48 | 24.23994 | -76.52797 | 5897 ft | 233 kts | 145° |
| 2026-05-06 00:48 | 24.22713 | -76.51762 | 5528 ft | 225 kts | 145° |
| 2026-05-06 00:48 | 24.21456 | -76.50747 | 5157 ft | 219 kts | 145° |
| 2026-05-06 00:49 | 24.20251 | -76.49775 | 4796 ft | 214 kts | 145° |
| 2026-05-06 00:49 | 24.19053 | -76.48808 | 4430 ft | 210 kts | 145° |
| 2026-05-06 00:49 | 24.17895 | -76.47874 | 4069 ft | 207 kts | 144° |
| 2026-05-06 00:49 | 24.16748 | -76.46949 | 3709 ft | 204 kts | 145° |
| 2026-05-06 00:50 | 24.15610 | -76.46031 | 3348 ft | 202 kts | 144° |
| 2026-05-06 00:50 | 24.14484 | -76.45123 | 2984 ft | 200 kts | 144° |
| 2026-05-06 00:50 | 24.13374 | -76.44228 | 2645 ft | 200 kts | 144° |
| 2026-05-06 00:50 | 24.12210 | -76.43291 | 2350 ft | 214 kts | 144° |
| 2026-05-06 00:51 | 24.11005 | -76.42320 | 2290 ft | 214 kts | 144° |
| 2026-05-06 00:51 | 24.09809 | -76.41355 | 2282 ft | 211 kts | 144° |
| 2026-05-06 00:51 | 24.08543 | -76.40336 | 2306 ft | 238 kts | 144° |
| 2026-05-06 00:51 | 24.07184 | -76.39242 | 2291 ft | 249 kts | 144° |
| 2026-05-06 00:52 | 24.05762 | -76.38097 | 2287 ft | 253 kts | 144° |
| 2026-05-06 00:52 | 24.04353 | -76.36963 | 2283 ft | 252 kts | 144° |
| 2026-05-06 00:52 | 24.02932 | -76.35819 | 2283 ft | 251 kts | 144° |
| 2026-05-06 00:52 | 24.01533 | -76.34694 | 2282 ft | 250 kts | 144° |
| 2026-05-06 00:53 | 24.00138 | -76.33572 | 2282 ft | 249 kts | 144° |
| 2026-05-06 00:53 | 23.98738 | -76.32447 | 2282 ft | 248 kts | 144° |
| 2026-05-06 00:53 | 23.97346 | -76.31328 | 2281 ft | 248 kts | 144° |
| 2026-05-06 00:53 | 23.95953 | -76.30209 | 2281 ft | 247 kts | 144° |
| 2026-05-06 00:54 | 23.94572 | -76.29099 | 2282 ft | 247 kts | 144° |
| 2026-05-06 00:54 | 23.93173 | -76.27975 | 2282 ft | 246 kts | 144° |
| 2026-05-06 00:54 | 23.91792 | -76.26868 | 2282 ft | 246 kts | 144° |
| 2026-05-06 00:54 | 23.90425 | -76.25771 | 2282 ft | 246 kts | 144° |
| 2026-05-06 00:55 | 23.89039 | -76.24655 | 2284 ft | 245 kts | 144° |
| 2026-05-06 00:55 | 23.87666 | -76.23553 | 2283 ft | 245 kts | 144° |
| 2026-05-06 00:55 | 23.86291 | -76.22450 | 2283 ft | 245 kts | 144° |
| 2026-05-06 00:55 | 23.84918 | -76.21349 | 2282 ft | 244 kts | 144° |
| 2026-05-06 00:56 | 23.83535 | -76.20240 | 2284 ft | 244 kts | 144° |
| 2026-05-06 00:56 | 23.82162 | -76.19140 | 2283 ft | 244 kts | 144° |
| 2026-05-06 00:56 | 23.80803 | -76.18051 | 2284 ft | 244 kts | 144° |
| 2026-05-06 00:56 | 23.79436 | -76.16956 | 2283 ft | 244 kts | 144° |
| 2026-05-06 00:57 | 23.78053 | -76.15849 | 2284 ft | 244 kts | 144° |
| 2026-05-06 00:57 | 23.76677 | -76.14748 | 2282 ft | 244 kts | 144° |
| 2026-05-06 00:57 | 23.75318 | -76.13661 | 2283 ft | 244 kts | 144° |
| 2026-05-06 00:57 | 23.73943 | -76.12560 | 2284 ft | 243 kts | 144° |
| 2026-05-06 00:58 | 23.72568 | -76.11461 | 2283 ft | 244 kts | 144° |
| 2026-05-06 00:58 | 23.71203 | -76.10370 | 2284 ft | 244 kts | 144° |
| 2026-05-06 00:58 | 23.69867 | -76.09302 | 2277 ft | 234 kts | 144° |
| 2026-05-06 00:58 | 23.68573 | -76.08268 | 2274 ft | 222 kts | 144° |
| 2026-05-06 00:59 | 23.67356 | -76.07295 | 2273 ft | 211 kts | 144° |
| 2026-05-06 00:59 | 23.66213 | -76.06382 | 2272 ft | 198 kts | 144° |
| 2026-05-06 00:59 | 23.65140 | -76.05525 | 2322 ft | 185 kts | 144° |
| 2026-05-06 00:59 | 23.64240 | -76.04491 | 2287 ft | 191 kts | 119° |
| 2026-05-06 01:00 | 23.63670 | -76.03273 | 2268 ft | 172 kts | 118° |
| 2026-05-06 01:00 | 23.63138 | -76.02159 | 2184 ft | 160 kts | 118° |
| 2026-05-06 01:00 | 23.62616 | -76.01065 | 1852 ft | 165 kts | 118° |
| 2026-05-06 01:00 | 23.62094 | -75.99975 | 1691 ft | 156 kts | 118° |
| 2026-05-06 01:01 | 23.61621 | -75.98985 | 1670 ft | 144 kts | 118° |
| 2026-05-06 01:01 | 23.61169 | -75.98040 | 1697 ft | 135 kts | 118° |
| 2026-05-06 01:01 | 23.60750 | -75.97163 | 1660 ft | 125 kts | 118° |
| 2026-05-06 01:01 | 23.60348 | -75.96317 | 1629 ft | 128 kts | 118° |
| 2026-05-06 01:02 | 23.59931 | -75.95435 | 1582 ft | 130 kts | 117° |
| 2026-05-06 01:02 | 23.59515 | -75.94562 | 1504 ft | 127 kts | 117° |
| 2026-05-06 01:02 | 23.59103 | -75.93708 | 1338 ft | 128 kts | 118° |
| 2026-05-06 01:02 | 23.58704 | -75.92843 | 1272 ft | 126 kts | 116° |
| 2026-05-06 01:03 | 23.58313 | -75.92007 | 1035 ft | 126 kts | 117° |
| 2026-05-06 01:03 | 23.57897 | -75.91170 | 813 ft | 123 kts | 117° |
| 2026-05-06 01:03 | 23.57491 | -75.90340 | 577 ft | 125 kts | 116° |
| 2026-05-06 01:03 | 23.57096 | -75.89514 | 318 ft | 123 kts | 116° |
| 2026-05-06 01:04 | 23.56705 | -75.88698 | 69 ft | 121 kts | 116° |
| 2026-05-06 01:04 | 23.56327 | -75.87910 | 17 ft | 106 kts | 116° |
| 2026-05-06 01:04 | 23.56048 | -75.87347 | 16 ft | 37 kts | 121° |
| 2026-05-06 01:04 | 23.55972 | -75.87207 | 16 ft | 8 kts | 69° |
| 2026-05-06 01:05 | 23.56012 | -75.87241 | 16 ft | 10 kts | 294° |
| 2026-05-06 01:05 | 23.56044 | -75.87324 | 16 ft | 12 kts | 295° |
| 2026-05-06 01:05 | 23.56087 | -75.87418 | 16 ft | 14 kts | 297° |
| 2026-05-06 01:05 | 23.56167 | -75.87461 | 16 ft | 15 kts | 18° |
| 2026-05-06 01:06 | 23.56255 | -75.87415 | 16 ft | 14 kts | 27° |
| 2026-05-06 01:06 | 23.56333 | -75.87368 | 16 ft | 12 kts | 34° |
| 2026-05-06 01:06 | 23.56355 | -75.87298 | 18 ft | 6 kts | 109° |
| 2026-05-06 01:06 | 23.56345 | -75.87279 | 18 ft | 0 kts | 119° |